Nautilus Survey — LIXR — position and weather

sailwx.info

Track history (hours):
 
Tides and Currents Weather Stations Pressure Air Temp Water Temp Dewpoint Dewpoint Depression Visibility Wind Speed Wind Dir Waves Ship Positions

Nautilus Survey

Last reported at 2015-Sep-04 13:24 UTC. Time now 2015-Sep-04 16:36 UTC.
Position N 66°29' E 013°06'.

Length 22 m; draft 2 m.

Type: Dredging. MMSI: 259464000.

Date/timePositionNaut miles runAvg speedWind from/ knotsBaromVisibWave heightAir tempDewpointWater temp
2015-Sep-04 13:24N 66°29' E 013°06'1 1.4
2015-Sep-04 12:29N 66°28' E 013°08'8 8.6
2015-Sep-04 11:31N 66°21' E 012°58'67 1.7
2015-Sep-02 19:33N 65°18' E 011°59'10 9.8
2015-Sep-02 18:33N 65°09' E 011°50'10 9.7
2015-Sep-02 17:33N 65°00' E 011°38'9 9.5
2015-Sep-02 16:34N 64°54' E 011°21'10 9.3
2015-Sep-02 15:31N 64°47' E 011°05'55 9.1
2015-Sep-02 09:31N 64°01' E 009°59'9 9.5
2015-Sep-02 08:33N 63°53' E 009°48'8 4.0
2015-Sep-02 06:25N 63°47' E 009°35'3 2.9
2015-Sep-02 05:33N 63°45' E 009°32'249 6.4
2015-Aug-31 14:31N 59°60' E 005°43'  
2015-Aug-26 12:33N 59°59' E 005°50'  
Track history (hours):
 
Tides and Currents Weather Stations Pressure Air Temp Water Temp Dewpoint Dewpoint Depression Visibility Wind Speed Wind Dir Waves Ship Positions

Nautilus Survey

Last reported at 2015-Sep-04 13:24 UTC. Time now 2015-Sep-04 16:36 UTC.
Position N 66°29' E 013°06'.

Length 22 m; draft 2 m.

Type: Dredging. MMSI: 259464000.

Date/timePositionNaut miles runAvg speedWind from/ knotsBaromVisibWave heightAir tempDewpointWater temp
2015-Sep-04 13:24N 66°29' E 013°06'1 1.4
2015-Sep-04 12:29N 66°28' E 013°08'8 8.6
2015-Sep-04 11:31N 66°21' E 012°58'67 1.7
2015-Sep-02 19:33N 65°18' E 011°59'10 9.8
2015-Sep-02 18:33N 65°09' E 011°50'10 9.7
2015-Sep-02 17:33N 65°00' E 011°38'9 9.5
2015-Sep-02 16:34N 64°54' E 011°21'10 9.3
2015-Sep-02 15:31N 64°47' E 011°05'55 9.1
2015-Sep-02 09:31N 64°01' E 009°59'9 9.5
2015-Sep-02 08:33N 63°53' E 009°48'8 4.0
2015-Sep-02 06:25N 63°47' E 009°35'3 2.9
2015-Sep-02 05:33N 63°45' E 009°32'249 6.4
2015-Aug-31 14:31N 59°60' E 005°43'  
2015-Aug-26 12:33N 59°59' E 005°50'  

Dump ship's entire track history